Time;durP1;ratioP1;P1;durP2;ratioP2;P2;SDS_P1;SDS_P2;PMS_P1;PMS_P2;Temp;Humidity;BMP_temperature;BMP_pressure;BME280_temperature;BME280_humidity;BME280_pressure;Samples;Min_cycle;Max_cycle;Signal;HPM_P1;HPM_P2
2021/12/16 00:02:05;;;;;;;13.23;10.33;;;;;;;;;;5054902;28;20365;-72
2021/12/16 00:07:43;;;;;;;9.70;8.70;;;;;;;;;;5035340;28;20420;-71
2021/12/16 00:10:22;;;;;;;14.90;10.37;;;;;;;;;;5054566;28;20830;-78
2021/12/16 00:35:03;;;;;;;10.47;8.50;;;;;;;;;;5054524;28;20407;-69
2021/12/16 00:37:29;;;;;;;9.07;8.27;;;;;;;;;;5054185;28;20474;-68
2021/12/16 00:40:06;;;;;;;7.70;7.03;;;;;;;;;;5054095;28;20428;-69
2021/12/16 00:48:09;;;;;;;7.20;6.70;;;;;;;;;;5054384;28;20502;-80
2021/12/16 00:56:13;;;;;;;6.57;5.97;;;;;;;;;;5053956;28;20498;-75
2021/12/16 00:58:46;;;;;;;6.27;5.97;;;;;;;;;;5056031;28;20446;-71
2021/12/16 01:34:04;;;;;;;24.20;16.00;;;;;;;;;;5053479;28;20445;-74
2021/12/16 01:36:52;;;;;;;22.10;15.50;;;;;;;;;;5053310;28;20432;-73
2021/12/16 01:42:27;;;;;;;16.37;14.67;;;;;;;;;;5053624;28;20398;-77
2021/12/16 01:50:12;;;;;;;13.50;12.20;;;;;;;;;;5057513;28;20425;-77
2021/12/16 01:53:23;;;;;;;16.10;12.60;;;;;;;;;;5057741;28;20781;-79
2021/12/16 01:55:45;;;;;;;13.67;12.13;;;;;;;;;;5056063;28;20899;-78
2021/12/16 01:58:23;;;;;;;15.63;13.80;;;;;;;;;;5057348;28;20407;-74
2021/12/16 02:00:58;;;;;;;12.90;11.60;;;;;;;;;;5057193;28;20399;-75
2021/12/16 02:03:37;;;;;;;16.77;13.30;;;;;;;;;;5057467;28;20847;-76
2021/12/16 02:08:49;;;;;;;19.60;14.77;;;;;;;;;;5057194;28;20458;-73
2021/12/16 02:11:41;;;;;;;16.33;13.40;;;;;;;;;;5057066;28;20407;-77
2021/12/16 02:35:44;;;;;;;12.83;11.53;;;;;;;;;;5056979;28;20386;-80
2021/12/16 02:38:13;;;;;;;11.53;10.53;;;;;;;;;;5056762;28;20397;-80
2021/12/16 02:40:40;;;;;;;13.97;11.93;;;;;;;;;;5056618;28;20743;-79
2021/12/16 02:50:55;;;;;;;12.30;11.20;;;;;;;;;;5056782;28;20460;-80
2021/12/16 02:53:21;;;;;;;12.60;11.43;;;;;;;;;;5056467;28;20878;-68
2021/12/16 02:55:47;;;;;;;12.43;11.10;;;;;;;;;;5056150;28;20418;-68
2021/12/16 02:58:13;;;;;;;12.10;11.00;;;;;;;;;;5054887;28;20414;-68
2021/12/16 03:00:42;;;;;;;10.70;9.70;;;;;;;;;;5056103;28;20418;-68
2021/12/16 03:03:08;;;;;;;11.47;10.43;;;;;;;;;;5054794;28;20463;-69
2021/12/16 03:05:34;;;;;;;11.67;10.53;;;;;;;;;;5056025;28;20399;-68
2021/12/16 03:08:00;;;;;;;12.10;11.00;;;;;;;;;;5054710;28;21004;-68
2021/12/16 03:13:12;;;;;;;12.03;10.93;;;;;;;;;;5056189;28;20430;-68
2021/12/16 03:18:39;;;;;;;13.03;10.33;;;;;;;;;;5056038;28;20411;-68
2021/12/16 03:21:22;;;;;;;11.97;10.87;;;;;;;;;;5054459;28;20374;-68
2021/12/16 03:24:58;;;;;;;11.77;10.57;;;;;;;;;;5055645;28;20469;-68
2021/12/16 03:34:42;;;;;;;10.63;9.63;;;;;;;;;;5055434;28;20398;-69
2021/12/16 03:37:15;;;;;;;16.60;10.20;;;;;;;;;;5055589;28;20528;-68
2021/12/16 03:40:10;;;;;;;9.90;9.10;;;;;;;;;;5055411;28;20419;-68
2021/12/16 03:42:36;;;;;;;11.47;10.40;;;;;;;;;;5050719;28;20805;-68
2021/12/16 03:48:08;;;;;;;10.60;9.60;;;;;;;;;;5055169;28;20361;-68
2021/12/16 03:50:34;;;;;;;10.67;9.57;;;;;;;;;;5055199;28;20411;-68
2021/12/16 03:53:01;;;;;;;11.07;9.97;;;;;;;;;;5055081;28;20415;-68
2021/12/16 03:55:27;;;;;;;9.97;9.10;;;;;;;;;;5055097;28;20906;-68
2021/12/16 03:57:53;;;;;;;10.00;9.20;;;;;;;;;;5054876;28;20516;-68
2021/12/16 04:00:24;;;;;;;10.07;9.03;;;;;;;;;;5053738;28;20419;-69
2021/12/16 04:02:50;;;;;;;9.40;8.63;;;;;;;;;;5054775;28;20453;-68
2021/12/16 04:05:17;;;;;;;9.00;8.30;;;;;;;;;;5053614;28;20902;-68
2021/12/16 04:07:44;;;;;;;8.73;8.13;;;;;;;;;;5053565;28;20423;-68
2021/12/16 04:10:13;;;;;;;8.67;7.97;;;;;;;;;;5054163;28;20471;-70
2021/12/16 04:12:39;;;;;;;7.87;7.27;;;;;;;;;;5054835;28;20423;-68
2021/12/16 04:15:07;;;;;;;9.30;8.20;;;;;;;;;;5054896;28;20469;-79
2021/12/16 04:17:37;;;;;;;7.80;7.20;;;;;;;;;;5054669;28;20549;-75
2021/12/16 04:20:07;;;;;;;8.13;7.63;;;;;;;;;;5054831;28;20396;-68
2021/12/16 04:22:37;;;;;;;7.73;7.13;;;;;;;;;;5054594;28;20415;-68
2021/12/16 04:25:07;;;;;;;7.93;7.33;;;;;;;;;;5054412;28;20414;-69
2021/12/16 04:27:33;;;;;;;8.30;7.70;;;;;;;;;;5054482;28;20399;-69
2021/12/16 04:30:00;;;;;;;8.43;7.90;;;;;;;;;;5054369;28;20408;-68
2021/12/16 04:32:26;;;;;;;8.50;7.90;;;;;;;;;;5053126;28;20415;-71
2021/12/16 04:34:52;;;;;;;6.63;6.33;;;;;;;;;;5054254;28;20489;-70
2021/12/16 04:37:18;;;;;;;7.13;6.60;;;;;;;;;;5052909;28;20437;-69
2021/12/16 04:39:46;;;;;;;8.37;7.77;;;;;;;;;;5054224;28;20502;-68
2021/12/16 04:42:13;;;;;;;8.60;7.93;;;;;;;;;;5054237;28;20382;-68
2021/12/16 04:44:40;;;;;;;8.67;7.73;;;;;;;;;;5054147;28;20406;-68
2021/12/16 04:47:07;;;;;;;7.30;6.77;;;;;;;;;;5054123;28;20410;-70
2021/12/16 04:49:33;;;;;;;7.50;7.10;;;;;;;;;;5054039;28;20866;-69
2021/12/16 04:52:01;;;;;;;6.93;6.53;;;;;;;;;;5054077;28;20470;-69
2021/12/16 04:54:29;;;;;;;7.93;7.43;;;;;;;;;;5053905;28;20482;-68
2021/12/16 04:56:55;;;;;;;7.87;7.37;;;;;;;;;;5053913;28;20470;-70
2021/12/16 04:59:22;;;;;;;6.90;6.40;;;;;;;;;;5053947;28;20499;-68
2021/12/16 05:01:50;;;;;;;6.53;6.03;;;;;;;;;;5053879;28;20854;-68
2021/12/16 05:04:16;;;;;;;7.40;6.93;;;;;;;;;;5053777;28;20395;-80
2021/12/16 05:06:43;;;;;;;7.10;6.70;;;;;;;;;;5053742;28;20408;-68
2021/12/16 05:09:11;;;;;;;6.50;6.00;;;;;;;;;;5053618;28;20462;-68
2021/12/16 05:11:37;;;;;;;6.60;6.10;;;;;;;;;;5053724;28;20414;-69
2021/12/16 05:14:04;;;;;;;5.57;5.40;;;;;;;;;;5052232;28;20419;-69
2021/12/16 05:16:31;;;;;;;6.07;5.77;;;;;;;;;;5053575;28;20462;-70
2021/12/16 05:18:57;;;;;;;5.47;5.27;;;;;;;;;;5053603;28;20399;-68
2021/12/16 05:24:25;;;;;;;6.60;6.20;;;;;;;;;;5053808;28;20886;-70
2021/12/16 05:26:53;;;;;;;6.70;6.20;;;;;;;;;;5052360;28;20422;-72
2021/12/16 05:29:19;;;;;;;6.33;5.93;;;;;;;;;;5053371;28;20502;-70
2021/12/16 05:31:45;;;;;;;5.80;5.50;;;;;;;;;;5054010;28;20497;-75
2021/12/16 05:34:11;;;;;;;7.67;7.00;;;;;;;;;;5053914;28;20457;-76
2021/12/16 05:36:39;;;;;;;8.67;6.90;;;;;;;;;;5053270;28;20470;-70
2021/12/16 05:39:06;;;;;;;8.50;7.50;;;;;;;;;;5052164;28;20411;-69
2021/12/16 05:41:32;;;;;;;8.83;8.07;;;;;;;;;;5053293;28;20401;-72
2021/12/16 05:43:58;;;;;;;7.90;7.20;;;;;;;;;;5051973;28;20438;-72
2021/12/16 05:46:25;;;;;;;8.20;7.60;;;;;;;;;;5053280;28;20416;-71
2021/12/16 05:48:53;;;;;;;7.20;6.70;;;;;;;;;;5053278;28;20477;-73
2021/12/16 05:51:21;;;;;;;6.70;6.30;;;;;;;;;;5053507;28;20526;-74
2021/12/16 05:53:49;;;;;;;7.37;6.87;;;;;;;;;;5051995;28;20418;-75
2021/12/16 05:56:15;;;;;;;5.53;5.30;;;;;;;;;;5053123;28;20982;-74
2021/12/16 05:58:41;;;;;;;4.77;4.57;;;;;;;;;;5051972;28;20873;-72
2021/12/16 06:01:13;;;;;;;5.50;5.30;;;;;;;;;;5053208;28;20445;-75
2021/12/16 06:03:39;;;;;;;4.97;4.77;;;;;;;;;;5053160;28;20401;-70
2021/12/16 06:06:05;;;;;;;4.60;4.50;;;;;;;;;;5053183;28;20403;-76
2021/12/16 06:08:31;;;;;;;3.97;3.87;;;;;;;;;;5052943;28;20482;-72
2021/12/16 06:13:32;;;;;;;7.63;7.20;;;;;;;;;;5053442;28;20427;-69
2021/12/16 06:29:17;;;;;;;5.10;4.70;;;;;;;;;;5052898;28;20395;-68
2021/12/16 06:31:43;;;;;;;5.37;5.13;;;;;;;;;;5052898;28;20812;-68
2021/12/16 06:34:09;;;;;;;80.83;24.63;;;;;;;;;;5056520;28;20476;-68
2021/12/16 06:36:35;;;;;;;24.23;10.13;;;;;;;;;;5056485;28;20549;-69
2021/12/16 06:39:01;;;;;;;30.20;10.33;;;;;;;;;;5055266;28;20796;-68
2021/12/16 06:41:34;;;;;;;27.27;9.73;;;;;;;;;;5055149;28;20431;-68
2021/12/16 06:44:02;;;;;;;21.97;10.23;;;;;;;;;;5056453;28;20358;-70
2021/12/16 06:46:33;;;;;;;35.37;9.97;;;;;;;;;;5055041;28;20541;-69
2021/12/16 06:49:01;;;;;;;9.30;6.47;;;;;;;;;;5056551;28;20838;-67
2021/12/16 06:51:38;;;;;;;12.70;6.60;;;;;;;;;;5056195;28;20399;-69
2021/12/16 06:54:06;;;;;;;5.40;5.10;;;;;;;;;;5056165;28;20374;-70
2021/12/16 06:56:46;;;;;;;3.37;3.27;;;;;;;;;;5056251;28;20470;-68
2021/12/16 06:59:23;;;;;;;3.33;3.20;;;;;;;;;;5056165;28;20912;-72
2021/12/16 07:02:03;;;;;;;2.83;2.73;;;;;;;;;;5056143;28;20391;-68
2021/12/16 07:04:29;;;;;;;3.40;3.30;;;;;;;;;;5054818;28;20513;-67
2021/12/16 07:06:55;;;;;;;4.40;2.93;;;;;;;;;;5055901;28;20473;-73
2021/12/16 07:09:22;;;;;;;2.90;2.80;;;;;;;;;;5055784;28;20516;-72
2021/12/16 07:11:51;;;;;;;7.57;5.30;;;;;;;;;;5055783;28;20430;-72
2021/12/16 07:14:19;;;;;;;18.23;9.17;;;;;;;;;;5055671;28;20422;-75
2021/12/16 07:16:46;;;;;;;7.53;5.30;;;;;;;;;;5055722;28;20889;-71
2021/12/16 07:19:12;;;;;;;5.90;5.40;;;;;;;;;;5054516;28;20518;-71
2021/12/16 07:21:39;;;;;;;3.13;2.93;;;;;;;;;;5055736;28;20414;-75
2021/12/16 07:24:10;;;;;;;19.87;8.87;;;;;;;;;;5055663;28;20446;-70
2021/12/16 07:26:36;;;;;;;5.20;4.77;;;;;;;;;;5055830;28;20446;-74
2021/12/16 07:29:03;;;;;;;12.83;7.97;;;;;;;;;;5055706;28;20865;-73
2021/12/16 07:31:30;;;;;;;34.70;16.20;;;;;;;;;;5055492;28;20769;-75
2021/12/16 07:34:00;;;;;;;22.23;10.80;;;;;;;;;;5055879;28;20390;-75
2021/12/16 07:36:26;;;;;;;3.77;3.67;;;;;;;;;;5055391;28;20454;-76
2021/12/16 07:38:53;;;;;;;3.30;3.20;;;;;;;;;;5055358;28;20436;-71
2021/12/16 07:41:21;;;;;;;4.30;4.10;;;;;;;;;;5055287;28;20435;-71
2021/12/16 07:43:57;;;;;;;4.50;4.30;;;;;;;;;;5054604;28;20411;-69
2021/12/16 07:46:24;;;;;;;5.23;4.73;;;;;;;;;;5055226;28;20427;-72
2021/12/16 07:48:50;;;;;;;18.00;4.57;;;;;;;;;;5055059;28;20866;-69
2021/12/16 07:51:16;;;;;;;4.50;4.33;;;;;;;;;;5054707;28;20403;-69
2021/12/16 07:53:42;;;;;;;4.17;4.07;;;;;;;;;;5054674;28;20399;-67
2021/12/16 07:56:09;;;;;;;5.30;5.00;;;;;;;;;;5053451;28;20398;-70
2021/12/16 07:58:36;;;;;;;7.80;5.40;;;;;;;;;;5055010;28;20941;-69
2021/12/16 08:01:02;;;;;;;7.03;6.43;;;;;;;;;;5055010;28;20382;-68
2021/12/16 08:03:34;;;;;;;6.23;5.87;;;;;;;;;;5055062;28;20411;-71
2021/12/16 08:06:01;;;;;;;20.80;8.40;;;;;;;;;;5054763;28;20452;-69
2021/12/16 08:08:27;;;;;;;46.00;14.20;;;;;;;;;;5054632;28;20419;-73
2021/12/16 08:10:54;;;;;;;21.97;9.50;;;;;;;;;;5054756;28;20464;-68
2021/12/16 08:13:20;;;;;;;14.90;10.97;;;;;;;;;;5053579;28;20513;-71
2021/12/16 08:15:46;;;;;;;7.40;6.40;;;;;;;;;;5054722;28;20495;-70
2021/12/16 08:18:12;;;;;;;5.37;5.07;;;;;;;;;;5054577;28;20888;-70
2021/12/16 08:20:38;;;;;;;5.50;5.10;;;;;;;;;;5054695;28;20412;-70
2021/12/16 08:23:05;;;;;;;4.17;3.97;;;;;;;;;;5054458;28;20415;-70
2021/12/16 08:25:32;;;;;;;4.37;4.20;;;;;;;;;;5054648;28;20426;-68
2021/12/16 08:27:58;;;;;;;4.30;4.30;;;;;;;;;;5054462;28;20409;-69
2021/12/16 08:30:27;;;;;;;3.97;3.80;;;;;;;;;;5054670;28;20380;-70
2021/12/16 08:32:54;;;;;;;4.00;3.90;;;;;;;;;;5054380;28;20461;-69
2021/12/16 08:35:20;;;;;;;4.83;4.30;;;;;;;;;;5054225;28;20395;-69
2021/12/16 08:37:46;;;;;;;5.13;4.30;;;;;;;;;;5052924;28;20842;-68
2021/12/16 08:40:17;;;;;;;4.50;4.40;;;;;;;;;;5054139;28;20894;-68
2021/12/16 08:42:43;;;;;;;3.97;3.87;;;;;;;;;;5054210;28;20381;-73
2021/12/16 08:45:14;;;;;;;5.70;5.50;;;;;;;;;;5054132;28;20415;-71
2021/12/16 08:47:40;;;;;;;17.90;16.13;;;;;;;;;;5054389;28;20406;-72
2021/12/16 08:50:08;;;;;;;32.53;17.97;;;;;;;;;;5054230;28;20388;-71
2021/12/16 08:52:34;;;;;;;7.00;6.40;;;;;;;;;;5053965;28;20399;-71
2021/12/16 08:55:00;;;;;;;5.10;4.80;;;;;;;;;;5053954;28;20506;-72
2021/12/16 08:57:27;;;;;;;4.30;4.20;;;;;;;;;;5052516;28;21114;-70
2021/12/16 08:59:53;;;;;;;4.70;4.50;;;;;;;;;;5053938;28;20418;-72
2021/12/16 09:02:19;;;;;;;4.30;4.10;;;;;;;;;;5053928;28;20418;-71
2021/12/16 09:04:46;;;;;;;5.30;5.00;;;;;;;;;;5053743;28;20426;-70
2021/12/16 09:07:12;;;;;;;4.17;4.03;;;;;;;;;;5053627;28;20411;-79
2021/12/16 09:09:39;;;;;;;4.43;4.23;;;;;;;;;;5053529;28;20525;-72
2021/12/16 09:12:14;;;;;;;4.77;4.50;;;;;;;;;;5052363;28;20456;-68
2021/12/16 09:14:43;;;;;;;4.73;4.50;;;;;;;;;;5053720;28;20431;-72
2021/12/16 09:17:11;;;;;;;4.57;4.37;;;;;;;;;;5053516;28;20541;-70
2021/12/16 09:19:41;;;;;;;4.73;4.33;;;;;;;;;;5053491;28;20410;-73
2021/12/16 09:22:09;;;;;;;5.27;4.97;;;;;;;;;;5053564;28;20433;-71
2021/12/16 09:24:35;;;;;;;5.40;5.00;;;;;;;;;;5053749;28;20418;-70
2021/12/16 09:27:01;;;;;;;4.50;4.30;;;;;;;;;;5053579;28;20400;-73
2021/12/16 09:29:27;;;;;;;7.30;4.47;;;;;;;;;;5053455;28;20448;-78
2021/12/16 09:31:54;;;;;;;4.10;4.00;;;;;;;;;;5053422;28;20448;-80
2021/12/16 09:34:20;;;;;;;4.90;4.20;;;;;;;;;;5053700;28;20434;-76
2021/12/16 09:36:46;;;;;;;3.97;3.83;;;;;;;;;;5053290;28;20907;-79
2021/12/16 09:39:15;;;;;;;4.33;4.10;;;;;;;;;;5053579;28;20498;-74
2021/12/16 09:41:43;;;;;;;4.97;4.87;;;;;;;;;;5053416;28;20568;-78
2021/12/16 09:44:09;;;;;;;8.33;5.80;;;;;;;;;;5052144;28;20433;-79
2021/12/16 09:46:35;;;;;;;6.40;5.80;;;;;;;;;;5052095;28;20924;-81
2021/12/16 09:49:02;;;;;;;4.00;3.90;;;;;;;;;;5053425;28;20410;-81
2021/12/16 09:51:30;;;;;;;3.60;3.50;;;;;;;;;;5053268;28;20425;-73
2021/12/16 09:53:59;;;;;;;3.50;3.40;;;;;;;;;;5053329;28;20403;-76
2021/12/16 09:56:26;;;;;;;3.50;3.37;;;;;;;;;;5052436;28;20468;-69
2021/12/16 09:58:53;;;;;;;3.40;3.30;;;;;;;;;;5053230;28;20929;-70
2021/12/16 10:01:20;;;;;;;6.23;5.77;;;;;;;;;;5053228;28;20415;-70
2021/12/16 10:03:48;;;;;;;6.37;5.87;;;;;;;;;;5051958;28;20509;-70
2021/12/16 10:06:15;;;;;;;12.80;5.60;;;;;;;;;;5053204;28;20415;-70
2021/12/16 10:08:41;;;;;;;3.80;3.70;;;;;;;;;;5056044;28;20424;-70
2021/12/16 10:11:08;;;;;;;3.20;3.10;;;;;;;;;;5057253;28;20842;-70
2021/12/16 10:13:45;;;;;;;2.93;2.83;;;;;;;;;;5057082;28;20421;-69
2021/12/16 10:18:37;;;;;;;3.47;3.17;;;;;;;;;;5056966;28;20417;-80
2021/12/16 10:21:05;;;;;;;3.43;3.23;;;;;;;;;;5057081;28;20399;-71
2021/12/16 10:23:33;;;;;;;3.20;3.10;;;;;;;;;;5056881;28;20422;-80
2021/12/16 10:26:01;;;;;;;3.20;3.20;;;;;;;;;;5055551;28;20414;-80
2021/12/16 10:28:29;;;;;;;3.43;3.30;;;;;;;;;;5056787;28;20919;-81
2021/12/16 10:31:02;;;;;;;3.77;3.67;;;;;;;;;;5056629;28;20411;-80
2021/12/16 10:33:40;;;;;;;4.20;4.07;;;;;;;;;;5056744;28;20391;-80
2021/12/16 10:36:06;;;;;;;4.03;3.83;;;;;;;;;;5056490;28;20474;-81
2021/12/16 10:38:36;;;;;;;3.17;2.97;;;;;;;;;;5056032;28;21039;-84
2021/12/16 10:41:03;;;;;;;8.10;7.30;;;;;;;;;;5055654;28;20407;-68
2021/12/16 10:43:31;;;;;;;5.30;5.00;;;;;;;;;;5056098;28;20414;-80
2021/12/16 10:46:02;;;;;;;5.30;4.90;;;;;;;;;;5056343;28;20902;-75
2021/12/16 10:48:28;;;;;;;9.07;6.20;;;;;;;;;;5056464;28;20425;-73
2021/12/16 10:51:01;;;;;;;7.33;6.63;;;;;;;;;;5056273;28;20964;-69
2021/12/16 10:53:48;;;;;;;7.90;7.17;;;;;;;;;;5056017;28;20403;-79
2021/12/16 10:56:16;;;;;;;12.73;6.30;;;;;;;;;;5056036;28;20415;-78
2021/12/16 10:58:54;;;;;;;7.17;6.53;;;;;;;;;;5056018;28;20494;-77
2021/12/16 11:01:30;;;;;;;6.93;6.33;;;;;;;;;;5056113;28;20416;-76
2021/12/16 11:03:56;;;;;;;6.87;6.37;;;;;;;;;;5056055;28;20489;-77
2021/12/16 11:06:26;;;;;;;7.47;6.73;;;;;;;;;;5054803;28;20415;-78
2021/12/16 11:08:53;;;;;;;9.00;7.20;;;;;;;;;;5055815;28;20459;-76
2021/12/16 11:11:26;;;;;;;6.13;5.63;;;;;;;;;;5055963;28;20406;-78
2021/12/16 11:14:01;;;;;;;6.40;6.00;;;;;;;;;;5055909;28;20480;-76
2021/12/16 11:16:34;;;;;;;6.17;5.80;;;;;;;;;;5055930;28;20933;-75
2021/12/16 11:19:00;;;;;;;6.73;6.20;;;;;;;;;;5053339;28;20431;-79
2021/12/16 11:21:39;;;;;;;5.93;5.43;;;;;;;;;;5055814;28;20403;-79
2021/12/16 11:24:24;;;;;;;6.90;6.30;;;;;;;;;;5054400;28;20801;-77
2021/12/16 11:26:51;;;;;;;6.77;6.40;;;;;;;;;;5055698;28;20411;-79
2021/12/16 11:29:18;;;;;;;6.30;5.53;;;;;;;;;;5055634;28;20451;-77
2021/12/16 11:31:49;;;;;;;8.10;7.50;;;;;;;;;;5055835;28;20446;-79
2021/12/16 11:34:16;;;;;;;5.70;5.40;;;;;;;;;;5055711;28;20832;-79
2021/12/16 11:36:46;;;;;;;5.60;5.23;;;;;;;;;;5055445;28;20473;-77
2021/12/16 11:39:12;;;;;;;6.53;6.20;;;;;;;;;;5055404;28;20410;-77
2021/12/16 11:41:40;;;;;;;5.77;5.47;;;;;;;;;;5055421;28;20419;-76
2021/12/16 11:44:06;;;;;;;6.47;5.90;;;;;;;;;;5055395;28;20404;-78
2021/12/16 11:46:35;;;;;;;6.00;5.70;;;;;;;;;;5055308;28;20465;-79
2021/12/16 11:49:09;;;;;;;5.50;5.30;;;;;;;;;;5055273;28;20937;-78
2021/12/16 11:51:35;;;;;;;6.17;5.60;;;;;;;;;;5055177;28;20398;-76
2021/12/16 11:54:07;;;;;;;5.80;5.50;;;;;;;;;;5053906;28;20430;-78
2021/12/16 11:56:36;;;;;;;6.10;5.50;;;;;;;;;;5053706;28;20815;-75
2021/12/16 11:59:02;;;;;;;5.47;5.27;;;;;;;;;;5055176;28;20411;-69
2021/12/16 12:01:28;;;;;;;5.70;5.30;;;;;;;;;;5054978;28;20477;-69
2021/12/16 12:04:01;;;;;;;5.20;5.00;;;;;;;;;;5054904;28;20403;-68
2021/12/16 12:06:28;;;;;;;6.50;6.10;;;;;;;;;;5054857;28;20411;-68
2021/12/16 12:08:55;;;;;;;5.80;5.50;;;;;;;;;;5054608;28;21032;-72
2021/12/16 12:11:23;;;;;;;4.87;4.67;;;;;;;;;;5054752;28;20419;-69
2021/12/16 12:13:56;;;;;;;6.53;6.07;;;;;;;;;;5054686;28;20403;-73
2021/12/16 12:16:42;;;;;;;8.73;5.50;;;;;;;;;;5054691;28;20411;-71
2021/12/16 12:19:11;;;;;;;7.20;6.70;;;;;;;;;;5054515;28;20425;-70
2021/12/16 12:21:46;;;;;;;5.97;5.77;;;;;;;;;;5054587;28;20492;-74
2021/12/16 12:24:27;;;;;;;6.40;5.93;;;;;;;;;;5053297;28;20449;-69
2021/12/16 12:26:53;;;;;;;5.53;5.10;;;;;;;;;;5054411;28;20422;-70
2021/12/16 12:29:30;;;;;;;6.83;6.37;;;;;;;;;;5054516;28;20417;-68
2021/12/16 12:32:05;;;;;;;6.20;5.60;;;;;;;;;;5054090;28;20480;-69
2021/12/16 12:34:31;;;;;;;5.50;5.20;;;;;;;;;;5054565;28;20403;-68
2021/12/16 12:37:01;;;;;;;6.50;6.03;;;;;;;;;;5054267;28;20461;-67
2021/12/16 12:39:30;;;;;;;6.40;6.00;;;;;;;;;;5054286;28;20423;-67
2021/12/16 12:41:57;;;;;;;7.00;6.60;;;;;;;;;;5054176;28;20411;-71
2021/12/16 12:44:23;;;;;;;6.97;6.57;;;;;;;;;;5054136;28;20408;-71
2021/12/16 12:46:50;;;;;;;6.63;6.23;;;;;;;;;;5054201;28;20418;-69
2021/12/16 12:49:18;;;;;;;6.30;5.90;;;;;;;;;;5054295;28;20411;-66
2021/12/16 12:51:48;;;;;;;8.13;6.40;;;;;;;;;;5054062;28;20433;-72
2021/12/16 12:54:20;;;;;;;6.57;6.20;;;;;;;;;;5053959;28;20403;-68
2021/12/16 12:56:46;;;;;;;6.70;6.40;;;;;;;;;;5052524;28;20580;-70
2021/12/16 12:59:15;;;;;;;6.40;6.00;;;;;;;;;;5053906;28;20790;-70
2021/12/16 13:01:47;;;;;;;7.00;6.00;;;;;;;;;;5053884;28;20435;-68
2021/12/16 13:04:24;;;;;;;5.90;5.60;;;;;;;;;;5052581;28;20415;-69
2021/12/16 13:07:01;;;;;;;6.77;6.27;;;;;;;;;;5053784;28;20753;-74
2021/12/16 13:09:27;;;;;;;6.47;6.10;;;;;;;;;;5053645;28;20984;-70
2021/12/16 13:11:53;;;;;;;6.13;5.83;;;;;;;;;;5053607;28;20415;-69
2021/12/16 13:14:28;;;;;;;6.57;6.00;;;;;;;;;;5053766;28;20445;-69
2021/12/16 13:28:33;;;;;;;6.57;6.17;;;;;;;;;;5053492;28;20449;-71
2021/12/16 13:31:04;;;;;;;6.63;6.17;;;;;;;;;;5053486;28;20415;-68
2021/12/16 13:33:39;;;;;;;6.37;5.97;;;;;;;;;;5053479;28;20482;-67
2021/12/16 13:36:17;;;;;;;14.47;7.27;;;;;;;;;;5053366;28;20402;-69
2021/12/16 13:38:46;;;;;;;7.23;6.63;;;;;;;;;;5052126;28;20849;-70
2021/12/16 13:41:18;;;;;;;7.50;6.90;;;;;;;;;;5053491;28;20406;-73
2021/12/16 13:44:04;;;;;;;8.33;7.63;;;;;;;;;;5053051;28;20552;-69
2021/12/16 13:46:51;;;;;;;7.20;6.70;;;;;;;;;;5053345;28;20399;-69
2021/12/16 14:01:29;;;;;;;6.90;6.50;;;;;;;;;;5053123;28;20779;-66
2021/12/16 14:06:32;;;;;;;6.87;6.50;;;;;;;;;;5053361;28;20422;-66
2021/12/16 14:09:11;;;;;;;7.20;6.60;;;;;;;;;;5052925;28;20462;-80
2021/12/16 14:14:42;;;;;;;7.70;7.07;;;;;;;;;;5053413;28;20482;-76
2021/12/16 14:17:27;;;;;;;6.53;5.90;;;;;;;;;;5053207;28;20470;-75
2021/12/16 14:23:03;;;;;;;6.03;5.73;;;;;;;;;;5053306;28;20456;-72
2021/12/16 14:34:26;;;;;;;8.00;7.33;;;;;;;;;;5052885;28;20972;-76
2021/12/16 14:41:36;;;;;;;11.27;9.47;;;;;;;;;;5053055;28;20959;-68
2021/12/16 14:46:59;;;;;;;13.13;9.60;;;;;;;;;;5052992;28;20479;-68
2021/12/16 14:49:29;;;;;;;11.17;10.10;;;;;;;;;;5052905;28;20425;-69
2021/12/16 14:51:57;;;;;;;7.77;7.27;;;;;;;;;;5052690;28;20448;-67
2021/12/16 14:54:23;;;;;;;7.60;6.90;;;;;;;;;;5055077;28;20403;-80
2021/12/16 14:56:50;;;;;;;8.03;7.30;;;;;;;;;;5055132;28;20840;-74
2021/12/16 14:59:18;;;;;;;7.40;6.90;;;;;;;;;;5056178;28;20406;-70
2021/12/16 15:01:48;;;;;;;7.70;7.20;;;;;;;;;;5056157;28;20399;-67
2021/12/16 15:04:16;;;;;;;7.83;7.23;;;;;;;;;;5056451;28;20480;-69
2021/12/16 15:06:53;;;;;;;6.60;6.30;;;;;;;;;;5056102;28;20399;-69
2021/12/16 15:09:31;;;;;;;8.20;7.70;;;;;;;;;;5054603;28;20482;-68
2021/12/16 15:12:44;;;;;;;8.10;7.47;;;;;;;;;;5055895;28;20406;-68
2021/12/16 15:15:13;;;;;;;7.30;6.90;;;;;;;;;;5054596;28;20762;-72
2021/12/16 15:37:03;;;;;;;8.27;7.70;;;;;;;;;;5055796;28;20545;-71
2021/12/16 15:44:52;;;;;;;11.63;10.50;;;;;;;;;;5055260;28;20395;-78
2021/12/16 15:47:18;;;;;;;9.83;9.13;;;;;;;;;;5055211;28;20391;-75
2021/12/16 15:49:45;;;;;;;11.00;9.90;;;;;;;;;;5055309;28;20409;-78
2021/12/16 15:52:11;;;;;;;10.77;9.87;;;;;;;;;;5055294;28;20399;-77
2021/12/16 15:54:37;;;;;;;11.60;10.07;;;;;;;;;;5053834;28;20422;-78
2021/12/16 15:57:05;;;;;;;11.17;10.07;;;;;;;;;;5055024;28;20470;-74
2021/12/16 15:59:31;;;;;;;43.70;20.00;;;;;;;;;;5055160;28;20403;-79
2021/12/16 16:01:58;;;;;;;98.63;36.20;;;;;;;;;;5055025;28;20469;-78
2021/12/16 16:04:28;;;;;;;42.83;20.77;;;;;;;;;;5054798;28;20392;-77
2021/12/16 16:06:57;;;;;;;34.50;17.57;;;;;;;;;;5054611;28;20407;-78
2021/12/16 16:09:24;;;;;;;20.67;14.10;;;;;;;;;;5054804;28;20497;-74
2021/12/16 16:11:52;;;;;;;25.93;15.77;;;;;;;;;;5053492;28;20852;-76
2021/12/16 16:14:19;;;;;;;25.50;17.10;;;;;;;;;;5054789;28;20402;-77
2021/12/16 16:16:49;;;;;;;30.07;21.33;;;;;;;;;;5054590;28;20486;-70
2021/12/16 16:19:20;;;;;;;35.07;22.53;;;;;;;;;;5054676;28;20452;-77
2021/12/16 16:21:51;;;;;;;30.60;22.83;;;;;;;;;;5053530;28;20448;-78
2021/12/16 16:24:21;;;;;;;34.87;21.73;;;;;;;;;;5054808;28;20524;-73
2021/12/16 16:26:48;;;;;;;33.30;21.30;;;;;;;;;;5054669;28;20427;-73
2021/12/16 16:29:15;;;;;;;27.83;21.00;;;;;;;;;;5054503;28;20414;-77
2021/12/16 16:31:42;;;;;;;26.87;20.00;;;;;;;;;;5054715;28;20429;-76
2021/12/16 16:34:13;;;;;;;23.90;18.80;;;;;;;;;;5054694;28;20407;-75
2021/12/16 16:36:40;;;;;;;25.60;17.60;;;;;;;;;;5054388;28;20541;-71
2021/12/16 16:39:09;;;;;;;17.50;15.60;;;;;;;;;;5054525;28;20415;-70
2021/12/16 16:41:39;;;;;;;97.73;53.27;;;;;;;;;;5054296;28;20468;-65
2021/12/16 16:44:11;;;;;;;20.20;15.57;;;;;;;;;;5054174;28;20780;-66
2021/12/16 16:46:45;;;;;;;15.50;11.70;;;;;;;;;;5054119;28;20419;-64
2021/12/16 16:49:26;;;;;;;37.33;17.37;;;;;;;;;;5054137;28;20407;-65
2021/12/16 16:51:53;;;;;;;28.13;15.23;;;;;;;;;;5054175;28;20381;-65
2021/12/16 16:54:25;;;;;;;50.60;22.60;;;;;;;;;;5053592;28;20756;-65
2021/12/16 16:57:06;;;;;;;47.00;20.60;;;;;;;;;;5053944;28;21045;-65
2021/12/16 16:59:35;;;;;;;60.97;25.60;;;;;;;;;;5053851;28;20402;-65
2021/12/16 17:02:04;;;;;;;38.43;17.47;;;;;;;;;;5053171;28;20494;-65
2021/12/16 17:04:32;;;;;;;25.67;14.30;;;;;;;;;;5053516;28;20406;-64
2021/12/16 17:06:59;;;;;;;24.00;14.00;;;;;;;;;;5054093;28;20469;-64
2021/12/16 17:09:30;;;;;;;19.20;13.67;;;;;;;;;;5053699;28;20488;-66
2021/12/16 17:11:56;;;;;;;17.40;11.90;;;;;;;;;;5053955;28;20795;-65
2021/12/16 17:14:32;;;;;;;19.47;13.13;;;;;;;;;;5053837;28;20415;-66
2021/12/16 17:19:46;;;;;;;25.30;14.70;;;;;;;;;;5053984;28;20460;-65
2021/12/16 17:22:14;;;;;;;22.13;15.10;;;;;;;;;;5053882;28;20403;-64
2021/12/16 17:24:48;;;;;;;29.07;15.17;;;;;;;;;;5053600;28;20399;-65
2021/12/16 17:27:15;;;;;;;26.63;18.30;;;;;;;;;;5053369;28;20417;-64
2021/12/16 17:29:50;;;;;;;35.37;21.87;;;;;;;;;;5053447;28;20403;-64
2021/12/16 17:32:18;;;;;;;33.80;20.57;;;;;;;;;;5053444;28;20739;-64
2021/12/16 17:34:47;;;;;;;30.40;20.50;;;;;;;;;;5053393;28;20498;-65
2021/12/16 17:37:19;;;;;;;38.50;23.07;;;;;;;;;;5053344;28;21040;-67
2021/12/16 17:39:47;;;;;;;31.00;21.40;;;;;;;;;;5053444;28;20411;-64
2021/12/16 17:42:17;;;;;;;65.93;37.53;;;;;;;;;;5052028;28;20840;-66
2021/12/16 17:44:45;;;;;;;54.20;33.10;;;;;;;;;;5053312;28;20441;-64
2021/12/16 17:47:14;;;;;;;53.10;31.77;;;;;;;;;;5052210;28;20751;-64
2021/12/16 17:49:40;;;;;;;41.73;25.43;;;;;;;;;;5053338;28;20778;-66
2021/12/16 17:52:07;;;;;;;31.90;22.20;;;;;;;;;;5053297;28;20434;-64
2021/12/16 17:54:48;;;;;;;28.20;22.47;;;;;;;;;;5053192;28;20391;-64
2021/12/16 17:57:22;;;;;;;46.33;26.13;;;;;;;;;;5053042;28;20466;-64
2021/12/16 17:59:48;;;;;;;46.37;24.97;;;;;;;;;;5053207;28;20411;-66
2021/12/16 18:02:17;;;;;;;49.63;28.50;;;;;;;;;;5053136;28;20411;-66
2021/12/16 18:04:44;;;;;;;37.10;23.40;;;;;;;;;;5053140;28;20490;-64
2021/12/16 18:07:10;;;;;;;42.10;22.87;;;;;;;;;;5053110;28;20421;-64
2021/12/16 18:09:41;;;;;;;43.27;23.23;;;;;;;;;;5052934;28;20466;-64
2021/12/16 18:12:09;;;;;;;32.33;21.30;;;;;;;;;;5053056;28;20414;-64
2021/12/16 18:14:43;;;;;;;23.93;17.50;;;;;;;;;;5053026;28;20484;-64
2021/12/16 18:17:18;;;;;;;21.23;17.07;;;;;;;;;;5052987;28;20462;-64
2021/12/16 18:19:56;;;;;;;22.67;17.50;;;;;;;;;;5053000;28;20409;-64
2021/12/16 18:22:24;;;;;;;21.97;16.90;;;;;;;;;;5052944;28;20402;-64
2021/12/16 18:24:52;;;;;;;28.93;20.27;;;;;;;;;;5052945;28;20422;-66
2021/12/16 18:27:26;;;;;;;28.53;19.80;;;;;;;;;;5052824;28;20438;-70
2021/12/16 18:29:53;;;;;;;30.00;23.07;;;;;;;;;;5056157;28;20763;-64
2021/12/16 18:32:26;;;;;;;53.83;32.97;;;;;;;;;;5056772;28;20373;-65